Terminal Aerodrome Forecast
Issued by NWS

Home | Current Version | Previous Version | Text Only | Print | Product List | Glossary On
Versions: 1 2 3 4 5 6 7 8 9 10 11 12 13 14 15 16 17 18 19 20 21 22 23 24
975
FTUS43 KLSX 230554 AAA
TAFCPS
TAF AMD
KCPS 230554Z 2306/2406 33013KT P6SM OVC015
      TEMPO 2306/2308 6SM -RA
     FM231200 33011G20KT P6SM OVC020
     FM231800 31010G16KT P6SM BKN035
     FM240400 00000KT P6SM SCT150=

USA.gov is the U.S. government's official web portal to all federal, state and local government web resources and services.